createdAt,value
2022-11-05T00:03:22.480Z,24.50
2022-11-05T00:08:40.919Z,29.77
2022-11-05T00:14:00.411Z,27.83
2022-11-05T00:19:07.507Z,26.85
2022-11-05T00:24:28.668Z,26.75
2022-11-05T00:29:30.854Z,28.98
2022-11-05T00:34:31.666Z,32.03
2022-11-05T00:39:32.472Z,38.95
2022-11-05T00:44:52.289Z,36.92
2022-11-05T00:49:53.036Z,35.65
2022-11-05T00:54:53.841Z,38.28
2022-11-05T00:59:55.998Z,32.70
2022-11-05T01:04:56.806Z,35.05
2022-11-05T01:09:57.575Z,35.22
2022-11-05T01:14:59.900Z,35.78
2022-11-05T01:20:00.699Z,38.75
2022-11-05T01:25:01.708Z,37.05
2022-11-05T01:30:04.937Z,43.38
2022-11-05T01:35:06.900Z,41.22
2022-11-05T01:40:10.240Z,40.05
2022-11-05T01:45:17.927Z,38.75
2022-11-05T01:50:29.954Z,34.88
2022-11-05T01:55:35.026Z,35.50
2022-11-05T02:00:37.707Z,37.70
2022-11-05T02:05:41.418Z,27.77
2022-11-05T02:10:44.696Z,23.40
2022-11-05T02:15:56.849Z,22.92
2022-11-05T02:21:11.661Z,27.42
2022-11-05T02:26:44.597Z,27.98
2022-11-05T02:31:55.403Z,26.50
2022-11-05T02:37:06.573Z,32.55
2022-11-05T02:42:16.301Z,32.58
2022-11-05T02:47:26.920Z,28.83
2022-11-05T02:52:35.325Z,28.38
2022-11-05T02:57:37.359Z,30.70
2022-11-05T03:02:39.758Z,33.28
2022-11-05T03:07:50.410Z,30.60
2022-11-05T03:13:02.808Z,31.02
2022-11-05T03:18:13.032Z,33.30
2022-11-05T03:23:26.612Z,32.65
2022-11-05T03:28:32.427Z,31.48
2022-11-05T03:33:37.406Z,29.17
2022-11-05T03:38:42.359Z,27.40
2022-11-05T03:43:47.905Z,31.20
2022-11-05T03:48:55.367Z,31.38
2022-11-05T03:53:58.767Z,31.90
2022-11-05T03:59:01.565Z,36.50
2022-11-05T04:04:04.250Z,39.15
2022-11-05T04:09:22.535Z,43.33
2022-11-05T04:14:23.390Z,40.25
2022-11-05T04:19:39.483Z,42.95
2022-11-05T04:24:40.336Z,44.20
2022-11-05T04:29:59.526Z,42.88
2022-11-05T04:35:01.696Z,50.00
2022-11-05T04:40:02.552Z,50.08
2022-11-05T04:45:03.474Z,46.28
2022-11-05T04:50:06.084Z,47.42
2022-11-05T04:55:07.513Z,46.35
2022-11-05T05:00:10.951Z,42.67
2022-11-05T05:05:13.733Z,41.83
2022-11-05T05:10:14.587Z,39.83
2022-11-05T05:15:15.429Z,38.95
2022-11-05T05:20:35.444Z,42.83
2022-11-05T05:25:36.208Z,46.78
2022-11-05T05:30:37.166Z,44.38
2022-11-05T05:35:40.601Z,45.75
2022-11-05T05:40:41.579Z,44.42
2022-11-05T05:45:42.354Z,48.13
2022-11-05T05:50:44.488Z,37.83
2022-11-05T05:55:45.268Z,37.83
2022-11-05T06:00:46.059Z,50.30
2022-11-05T06:05:48.988Z,50.15
2022-11-05T06:10:52.272Z,50.13
2022-11-05T06:15:53.553Z,42.47
2022-11-05T06:20:55.953Z,40.63
2022-11-05T06:26:00.855Z,42.63
2022-11-05T06:31:02.075Z,37.53
2022-11-05T06:36:05.708Z,39.65
2022-11-05T06:41:10.337Z,41.22
2022-11-05T06:46:12.477Z,38.08
2022-11-05T06:51:14.590Z,37.75
2022-11-05T06:56:15.383Z,46.10
2022-11-05T07:01:16.505Z,39.95
2022-11-05T07:06:18.829Z,37.30
2022-11-05T07:11:19.655Z,36.70
2022-11-05T07:16:20.445Z,35.30
2022-11-05T07:21:22.607Z,29.92
2022-11-05T07:26:23.411Z,34.70
2022-11-05T07:31:24.275Z,30.85
2022-11-05T07:36:26.729Z,29.65
2022-11-05T07:41:28.451Z,34.38
2022-11-05T07:46:29.310Z,30.77
2022-11-05T07:51:31.474Z,28.95
2022-11-05T07:56:34.283Z,26.42
2022-11-05T08:01:35.412Z,20.00
2022-11-05T08:06:41.933Z,29.17
2022-11-05T08:11:42.793Z,33.75
2022-11-05T08:16:43.644Z,25.00
2022-11-05T08:21:45.814Z,23.85
2022-11-05T08:26:47.747Z,21.60
2022-11-05T08:31:48.634Z,26.02
2022-11-05T08:36:50.789Z,29.30
2022-11-05T08:41:51.582Z,27.58
2022-11-05T08:46:52.755Z,29.65
2022-11-05T08:51:55.134Z,35.47
2022-11-05T08:56:55.953Z,25.55
2022-11-05T09:01:56.836Z,30.40
2022-11-05T09:06:59.060Z,26.42
2022-11-05T09:12:12.199Z,25.35
2022-11-05T09:17:18.049Z,30.75
2022-11-05T09:22:20.334Z,24.92
2022-11-05T09:27:21.394Z,24.10
2022-11-05T09:32:23.293Z,22.08
2022-11-05T09:37:25.651Z,28.10
2022-11-05T09:42:32.649Z,13.80
2022-11-05T09:47:37.635Z,16.17
2022-11-05T09:52:39.853Z,19.80
2022-11-05T09:57:46.885Z,22.23
2022-11-05T10:02:51.830Z,20.08
2022-11-05T10:07:59.396Z,17.88
2022-11-05T10:13:06.180Z,18.60
2022-11-05T10:18:15.759Z,25.50
2022-11-05T10:23:20.791Z,16.02
2022-11-05T10:28:24.829Z,19.30
2022-11-05T10:33:33.202Z,29.17
2022-11-05T10:38:35.408Z,15.18
2022-11-05T10:43:41.496Z,17.88
2022-11-05T10:48:54.078Z,17.70
2022-11-05T10:54:02.087Z,16.73
2022-11-05T10:59:12.082Z,16.75
2022-11-05T11:04:18.206Z,11.30
2022-11-05T11:09:23.787Z,16.85
2022-11-05T11:14:24.582Z,16.95
2022-11-05T11:19:28.725Z,15.85
2022-11-05T11:24:33.573Z,11.63
2022-11-05T11:29:40.505Z,18.52
2022-11-05T11:34:46.804Z,11.60
2022-11-05T11:39:52.540Z,9.77
2022-11-05T11:44:53.608Z,16.45
2022-11-05T11:49:57.139Z,16.25
2022-11-05T11:55:29.446Z,10.13
2022-11-05T12:00:32.590Z,13.48
2022-11-05T12:05:44.727Z,14.50
2022-11-05T12:10:59.174Z,13.05
2022-11-05T12:16:08.543Z,17.88
2022-11-05T12:21:34.562Z,5.93
2022-11-05T12:26:54.521Z,15.40
2022-11-05T12:32:05.676Z,13.98
2022-11-05T12:37:20.759Z,12.55
2022-11-05T12:42:42.217Z,9.40
2022-11-05T12:47:57.092Z,14.63
2022-11-05T12:53:28.121Z,11.93
2022-11-05T12:58:34.347Z,11.55
2022-11-05T13:03:43.401Z,20.20
2022-11-05T13:08:47.925Z,12.88
2022-11-05T13:14:00.603Z,10.82
2022-11-05T13:19:08.192Z,9.95
2022-11-05T13:24:16.237Z,13.20
2022-11-05T13:29:23.503Z,18.00
2022-11-05T13:34:24.427Z,12.68
2022-11-05T13:39:28.826Z,15.88
2022-11-05T13:44:59.528Z,11.48
2022-11-05T13:50:29.877Z,7.57
2022-11-05T13:55:57.088Z,9.60
2022-11-05T14:01:10.234Z,9.00
2022-11-05T14:06:11.776Z,9.60
2022-11-05T14:11:22.880Z,12.90
2022-11-05T14:16:27.002Z,13.00
2022-11-05T14:21:34.211Z,6.47
2022-11-05T14:26:35.024Z,10.18
2022-11-05T14:32:08.666Z,11.00
2022-11-05T14:37:37.068Z,12.02
2022-11-05T14:42:38.485Z,19.67
2022-11-05T14:47:45.265Z,9.05
2022-11-05T14:52:53.635Z,5.95
2022-11-05T14:58:23.248Z,6.15
2022-11-05T15:04:17.126Z,11.95
2022-11-05T15:09:28.252Z,10.30
2022-11-05T15:14:33.334Z,7.15
2022-11-05T15:19:38.045Z,14.25
2022-11-05T15:24:42.674Z,9.77
2022-11-05T15:29:44.022Z,9.30
2022-11-05T15:34:53.933Z,5.00
2022-11-05T15:39:56.431Z,7.57
2022-11-05T15:44:58.615Z,6.38
2022-11-05T15:50:03.768Z,7.57
2022-11-05T15:55:11.102Z,8.30
2022-11-05T16:00:18.468Z,7.00
2022-11-05T16:05:21.570Z,7.93
2022-11-05T16:10:26.594Z,9.43
2022-11-05T16:15:32.218Z,14.63
2022-11-05T16:20:37.000Z,12.43
2022-11-05T16:25:40.013Z,8.68
2022-11-05T16:30:40.827Z,13.30
2022-11-05T16:35:49.177Z,7.93
2022-11-05T16:40:50.006Z,10.55
2022-11-05T16:45:53.920Z,11.23
2022-11-05T16:50:56.147Z,12.02
2022-11-05T16:55:57.193Z,22.48
2022-11-05T17:01:02.855Z,7.82
2022-11-05T17:06:05.381Z,20.42
2022-11-05T17:11:06.904Z,21.63
2022-11-05T17:16:10.583Z,21.98
2022-11-05T17:21:14.125Z,19.45
2022-11-05T17:26:15.210Z,19.83
2022-11-05T17:31:17.345Z,24.30
2022-11-05T17:36:19.519Z,42.38
2022-11-05T17:41:22.231Z,40.78
2022-11-05T17:46:23.554Z,41.30
2022-11-05T17:51:25.726Z,28.52
2022-11-05T17:56:33.840Z,28.15
2022-11-05T18:01:42.798Z,30.30
2022-11-05T18:06:45.630Z,27.15
2022-11-05T18:11:46.882Z,23.95
2022-11-05T18:16:47.699Z,29.15
2022-11-05T18:21:49.835Z,27.45
2022-11-05T18:26:51.172Z,20.27
2022-11-05T18:31:52.033Z,26.85
2022-11-05T18:36:56.529Z,19.67
2022-11-05T18:41:57.592Z,27.23
2022-11-05T18:46:59.034Z,22.95
2022-11-05T18:52:01.271Z,15.15
2022-11-05T18:57:02.317Z,19.45
2022-11-05T19:02:03.608Z,22.73
2022-11-05T19:07:06.547Z,23.15
2022-11-05T19:12:08.500Z,29.35
2022-11-05T19:17:09.360Z,25.67
2022-11-05T19:22:11.746Z,27.77
2022-11-05T19:27:12.647Z,33.85
2022-11-05T19:32:13.475Z,34.42
2022-11-05T19:37:16.799Z,32.90
2022-11-05T19:42:17.599Z,30.80
2022-11-05T19:47:18.402Z,37.97
2022-11-05T19:52:20.608Z,34.70
2022-11-05T19:57:21.526Z,33.80
2022-11-05T20:02:22.500Z,36.38
2022-11-05T20:07:24.946Z,38.08
2022-11-05T20:12:25.893Z,32.63
2022-11-05T20:17:26.989Z,39.05
2022-11-05T20:22:29.257Z,26.88
2022-11-05T20:27:30.543Z,31.13
2022-11-05T20:32:32.132Z,26.95
2022-11-05T20:37:34.670Z,29.73
2022-11-05T20:42:37.273Z,22.48
2022-11-05T20:47:38.578Z,22.77
2022-11-05T20:52:41.210Z,20.52
2022-11-05T20:57:42.524Z,23.25
2022-11-05T21:02:43.572Z,28.58
2022-11-05T21:07:45.946Z,25.27
2022-11-05T21:12:47.248Z,19.80
2022-11-05T21:17:48.125Z,19.67
2022-11-05T21:22:50.598Z,17.33
2022-11-05T21:27:51.425Z,21.27
2022-11-05T21:32:53.351Z,22.58
2022-11-05T21:37:55.581Z,17.95
2022-11-05T21:42:56.393Z,17.75
2022-11-05T21:47:57.449Z,19.98
2022-11-05T21:53:17.238Z,15.98
2022-11-05T21:58:36.079Z,17.55
2022-11-05T22:03:37.088Z,18.52
2022-11-05T22:08:39.765Z,20.25
2022-11-05T22:13:40.552Z,14.68
2022-11-05T22:18:41.363Z,19.48
2022-11-05T22:23:43.539Z,18.27
2022-11-05T22:28:44.408Z,17.20
2022-11-05T22:33:45.378Z,13.93
2022-11-05T22:38:47.575Z,19.63
2022-11-05T22:43:48.890Z,14.98
2022-11-05T22:48:49.889Z,14.70
2022-11-05T22:53:52.281Z,15.30
2022-11-05T22:58:53.577Z,12.90
2022-11-05T23:03:57.337Z,12.35
2022-11-05T23:09:18.014Z,14.43
2022-11-05T23:14:18.797Z,14.00
2022-11-05T23:19:37.565Z,11.88
2022-11-05T23:24:40.048Z,9.82
2022-11-05T23:29:41.777Z,12.40
2022-11-05T23:34:42.606Z,11.02
2022-11-05T23:39:44.730Z,13.45
2022-11-05T23:45:03.013Z,13.15
2022-11-05T23:50:04.031Z,12.10
2022-11-05T23:55:06.768Z,13.18
